Garden Grove, IA (50103)

12:51 PM CDT on July 30, 2014 (GMT -0500)
Corydon IA (KIACORYD2) Elev 1089 ft | 40.77 °N, 93.34 °W | Change Station

Current weather conditions updated 1 minute ago

Partly Cloudy
Partly Cloudy
78.3 °F
Feels Like 79 °F
N
7.6
Wind Variable Wind from NNW
Gusts 9.8 mph

Today is forecast to be nearly the same temperature as yesterday.

Today
High -- | Low -- °F
--% Chance of Precip.
Yesterday
High -- | Low -- °F
Precip. -- in
6:09 AM 8:31 PM
Waxing Crescent, 13% visible
Pressure 30.12 in
Visibility 10.0 miles
Clouds Few 5000 ft
Heat Index 79 °F
Dew Point 54 °F
Humidity 43%
Rainfall 0.00 in
Snow Depth Not available.
UV 9 out of 12
Pollen 7.10 out of 12
Air Quality Not available.
Flu Activity Not available.
METAR KLWD 301653Z AUTO VRB05KT 10SM FEW050 25/13 A3013 RMK AO2 SLP199 T02500128

More Conditions Fewer Conditions

Pressure 30.12 in
Visibility 10.0 miles
Clouds Few 5000 ft
Heat Index 79 °F
Dew Point 54 °F
Humidity 43%
Rainfall 0.00 in
Snow Depth Not available.
UV 9 out of 12
Pollen 7.10 out of 12
Air Quality Not available.
Flu Activity Not available.
METAR KLWD 301653Z AUTO VRB05KT 10SM FEW050 25/13 A3013 RMK AO2 SLP199 T02500128

More Conditions Fewer Conditions

10-Day Weather Forecast

Almanac

Astronomy

Jul. 30, 2014 Rise Set
Actual Time 6:09 AM CDT 8:31 PM CDT
Civil Twilight 5:38 AM CDT 9:02 PM CDT
Nautical Twilight 5:00 AM CDT 9:40 PM CDT
Astronomical Twilight 4:17 AM CDT 10:23 PM CDT
Moon 9:43 AM CDT 10:13 PM CDT
Length of Visible Light 15h 24m
Length of Day
14h 22m
Tomorrow will be 1m 59s shorter.
Waxing Crescent, 13% of the Moon is Illuminated
Today
Waxing Crescent
Aug 3
First Quarter
Aug 10
Full
Aug 17
Last Quarter
Aug 25
New

Today's Extremes

State Highs State Lows

Community

WunderPhotos

Upload Photos

1,739,140 photos uploaded!

Nearby

Snow Depth

Station Depth Elevation
No new snow has been reported.

Earthquake Activity

City Distance Mag. Time & Date
No recent earthquake activity has been reported nearby.
Minimum magnitude displayed is 2.5.

Coastal Water Temperatures

Place Temperature
No Stations Reporting

Nearby Weather Stations

Station Location Temp. Heat Index Dew Point Humidity Wind Precip. Elev Updated Type
MesoWest LINEVL , Lineville, IA 79 °F 77 °F - - North  at  - 0.00 in / hr 1098 ft 10:50 AM CDT MADIS
Corydon IA, Corydon, IA 78.3 °F 79 °F 54 °F 43% NNW  at  7.6 mph 0.00 in / hr 1089 ft 12:49 PM CDT Normal
MesoWest CORYDN , Corydon, IA 82 °F 80 °F - - North  at  - 0.00 in / hr 1087 ft 10:20 AM CDT MADIS
farm, Chariton, IA 81.0 °F 81 °F 58 °F 46% NE  at  0.0 mph 0.00 in / hr 971 ft 12:51 PM CDT Rapid Fire

Show More Stations Show Fewer Stations